Melgaco, Brazil
Current Conditions -  °F | °C
As of 1:00 AM on Friday 19 Dec 2014 (Local Time) from SBMQ Reporting Station
Few Clouds Few Clouds  
Wind Chill: 77°   Ceiling: Unl
Heat Index: 78°   Visibility: 6mi
Dew Point: 73°   Wind: 5mph
Humidity: 89%   Direction: 340°NNW
Pressure: 29.83"   Gusts: NA
Location:  1.78°S, 50.73°W
Report Text: SBMQ 190400Z 34004KT 9999 FEW013 25/23 Q1010
Loading
Personal Weather Stations






























Interactive Weather Map New forecast layout! Learn more

10-Day Weather Forecast

Advertisements
Track Severe Weather on mobile